»·PEaware :: UAL811 KAST-KBFI

UAL811 :: KAST-KBFI

FLIGHT INFORMATION

Flight Status: Arrived
Operator:
United Airlines
More flights by this operator :: More flights under this callsign
Pilot: Erik K. (18332)
Aircraft: BOEING 737-200
(B732)
More flights by this aircraft type
Origin: KAST Astoria Regl
United States
Destination: KBFI Boeing Field/King Co Intl
United States
More flights between these airports :: More routes between these airports
Route: +AST V187 OLM OLM2
File this flight plan on PilotEdge
Remarks:
Altitude:
(Current/Filed)
15,000ft
Speed:
(Current/Filed)
400kts
Departed: 06-Nov-19 06:21 PM
Arrived: 06-Nov-19 06:55 PM
Distance/Time
Traveled:
105nm/0:34
Distance/Time
To Go:
Arrived

Flight Plot

Page will automatically refresh every two minutes.

Flight plan parsing failed; only flown route is shown


Map Options




Map Legend


Flown Route
Filed Route
Departure Airport
Arrival Airport
Navaid (VOR, NDB)
Fix

Horizontal Profiles

Position Reports

Time Latitude Longitude Heading Altitude Ground
Speed
06-Nov-19 17:33 46.156355 -123.881532 242 25ft 0kts
06-Nov-19 17:34 46.156355 -123.881532 242 25ft 0kts
06-Nov-19 17:35 46.156355 -123.881532 242 25ft 0kts
06-Nov-19 17:36 46.156355 -123.881532 242 25ft 0kts
06-Nov-19 17:37 46.156355 -123.881532 242 25ft 0kts
06-Nov-19 17:38 46.156355 -123.881532 242 25ft 0kts
06-Nov-19 17:39 46.156355 -123.881532 242 25ft 0kts
06-Nov-19 17:40 46.156355 -123.881532 242 25ft 0kts
06-Nov-19 17:41 46.156355 -123.881532 242 25ft 0kts
06-Nov-19 17:42 46.156355 -123.881532 242 25ft 0kts
06-Nov-19 17:43 46.156355 -123.881532 242 25ft 0kts
06-Nov-19 17:44 46.156355 -123.881532 242 25ft 0kts
06-Nov-19 17:45 46.156355 -123.881532 242 25ft 0kts
06-Nov-19 17:46 46.156355 -123.881532 242 25ft 0kts
06-Nov-19 17:46 46.156355 -123.881532 242 25ft 0kts
06-Nov-19 17:48 46.156355 -123.881532 242 25ft 0kts
06-Nov-19 17:49 46.156355 -123.881532 242 25ft 0kts
06-Nov-19 17:49 46.156355 -123.881532 242 25ft 0kts
06-Nov-19 17:51 46.156355 -123.881532 242 25ft 0kts
06-Nov-19 17:51 46.156355 -123.881532 242 25ft 0kts
06-Nov-19 17:52 46.156355 -123.881532 242 25ft 0kts
06-Nov-19 17:54 46.156355 -123.881532 242 25ft 0kts
06-Nov-19 17:54 46.156355 -123.881532 242 25ft 0kts
06-Nov-19 17:55 46.156355 -123.881532 242 25ft 0kts
06-Nov-19 17:56 46.156355 -123.881532 242 25ft 0kts
06-Nov-19 17:57 46.156355 -123.881532 242 25ft 0kts
06-Nov-19 17:58 46.156355 -123.881532 242 25ft 0kts
06-Nov-19 17:59 46.156355 -123.881532 242 25ft 0kts
06-Nov-19 18:00 46.156355 -123.881532 242 25ft 0kts
06-Nov-19 18:01 46.156355 -123.881532 242 25ft 0kts
06-Nov-19 18:02 46.156355 -123.881532 242 25ft 0kts
06-Nov-19 18:03 46.156355 -123.881532 242 25ft 0kts
06-Nov-19 18:04 46.156355 -123.881532 242 25ft 0kts
06-Nov-19 18:05 46.156355 -123.881532 242 25ft 0kts
06-Nov-19 18:06 46.156355 -123.881532 242 25ft 0kts
06-Nov-19 18:07 46.156355 -123.881532 242 25ft 0kts
06-Nov-19 18:08 46.156355 -123.881532 242 25ft 0kts
06-Nov-19 18:09 46.156355 -123.881532 242 25ft 0kts
06-Nov-19 18:10 46.156355 -123.881532 242 25ft 0kts
06-Nov-19 18:11 46.156335 -123.881694 272 25ft 3kts
06-Nov-19 18:12 46.157895 -123.883768 301 25ft 14kts
06-Nov-19 18:13 46.158447 -123.885038 302 25ft 0kts
06-Nov-19 18:14 46.158447 -123.885038 302 25ft 0kts
06-Nov-19 18:15 46.158447 -123.885038 302 25ft 0kts
06-Nov-19 18:16 46.158447 -123.885038 302 25ft 0kts
06-Nov-19 18:17 46.158447 -123.885038 302 25ft 0kts
06-Nov-19 18:18 46.158447 -123.885038 302 25ft 0kts
06-Nov-19 18:19 46.159388 -123.887092 304 26ft 11kts
06-Nov-19 18:20 46.159074 -123.877805 94 19ft 119kts
06-Nov-19 18:21 46.157078 -123.820349 67 1548ft 172kts
06-Nov-19 18:22 46.195426 -123.838403 281 3832ft 234kts
06-Nov-19 18:23 46.212466 -123.926725 320 7413ft 230kts
06-Nov-19 18:24 46.265552 -123.899200 38 10761ft 213kts
06-Nov-19 18:25 46.312584 -123.841425 40 13508ft 215kts
06-Nov-19 18:26 46.360988 -123.778117 38 15002ft 265kts
06-Nov-19 18:27 46.421063 -123.698736 40 15211ft 309kts
06-Nov-19 18:28 46.486812 -123.606348 44 15081ft 346kts
06-Nov-19 18:29 46.552490 -123.503309 44 15015ft 344kts
06-Nov-19 18:30 46.618534 -123.404700 42 15050ft 329kts
06-Nov-19 18:31 46.682343 -123.316154 41 15062ft 307kts
06-Nov-19 18:32 46.742833 -123.232661 42 15061ft 293kts
06-Nov-19 18:33 46.801071 -123.149272 43 15063ft 295kts
06-Nov-19 18:34 46.858659 -123.065145 42 14976ft 287kts
06-Nov-19 18:35 46.911938 -122.987714 41 14667ft 252kts
06-Nov-19 18:36 46.966083 -122.909613 43 11939ft 290kts
06-Nov-19 18:37 47.026393 -122.834884 44 10130ft 278kts
06-Nov-19 18:38 47.078655 -122.766684 36 9965ft 227kts
06-Nov-19 18:39 47.131048 -122.708235 35 8659ft 246kts
06-Nov-19 18:40 47.186428 -122.647554 35 7474ft 253kts
06-Nov-19 18:41 47.244075 -122.589503 20 6435ft 249kts
06-Nov-19 18:42 47.309692 -122.559156 15 5486ft 246kts
06-Nov-19 18:43 47.375682 -122.535000 6 4603ft 242kts
06-Nov-19 18:44 47.438577 -122.524527 5 3970ft 202kts
06-Nov-19 18:45 47.493208 -122.515761 5 3041ft 204kts
06-Nov-19 18:46 47.550715 -122.506710 5 2108ft 208kts
06-Nov-19 18:47 47.605486 -122.498087 5 2086ft 188kts
06-Nov-19 18:48 47.655232 -122.490161 5 2093ft 173kts
06-Nov-19 18:49 47.683897 -122.451046 116 2105ft 188kts
06-Nov-19 18:50 47.643789 -122.398716 151 2137ft 198kts
06-Nov-19 18:51 47.601139 -122.362973 149 1387ft 143kts
06-Nov-19 18:52 47.570027 -122.336724 151 719ft 127kts
06-Nov-19 18:53 47.537416 -122.308772 150 37ft 129kts
06-Nov-19 18:54 47.522545 -122.296975 233 21ft 13kts
06-Nov-19 18:55 47.525683 -122.300366 331 19ft 17kts
06-Nov-19 18:56 47.531795 -122.305508 330 19ft 30kts
06-Nov-19 18:57 47.536965 -122.309862 330 20ft 22kts
06-Nov-19 18:58 47.539413 -122.313414 241 21ft 0kts
06-Nov-19 18:59 47.539413 -122.313414 241 21ft 0kts
06-Nov-19 19:00 47.539413 -122.313414 241 21ft 0kts
06-Nov-19 19:01 47.539413 -122.313414 241 21ft 0kts
06-Nov-19 19:02 47.539413 -122.313414 241 21ft 0kts

Navigation Log

Ident Type
Flight plan parsing failed, navigation log unavailable